createdAt,value
2023-05-14T00:01:18.143Z,12.41
2023-05-14T00:03:44.973Z,12.41
2023-05-14T00:06:11.789Z,12.40
2023-05-14T00:08:38.526Z,12.32
2023-05-14T00:11:05.635Z,12.32
2023-05-14T00:13:32.632Z,12.36
2023-05-14T00:15:59.351Z,12.36
2023-05-14T00:18:26.224Z,12.34
2023-05-14T00:20:55.073Z,12.40
2023-05-14T00:23:24.916Z,12.18
2023-05-14T00:25:51.669Z,12.11
2023-05-14T00:28:18.417Z,12.05
2023-05-14T00:30:45.514Z,11.95
2023-05-14T00:33:12.329Z,11.79
2023-05-14T00:35:39.254Z,11.80
2023-05-14T00:38:06.157Z,11.75
2023-05-14T00:40:32.982Z,11.76
2023-05-14T00:42:59.697Z,11.67
2023-05-14T00:45:26.435Z,11.76
2023-05-14T00:47:54.224Z,11.68
2023-05-14T00:50:21.499Z,11.66
2023-05-14T00:52:48.452Z,11.68
2023-05-14T00:55:16.897Z,11.63
2023-05-14T00:57:43.804Z,11.71
2023-05-14T01:02:52.328Z,11.57
2023-05-14T01:05:19.490Z,11.79
2023-05-14T01:08:05.618Z,11.86
2023-05-14T01:10:42.878Z,11.87
2023-05-14T01:13:14.329Z,11.88
2023-05-14T01:15:42.198Z,11.93
2023-05-14T01:18:11.664Z,11.87
2023-05-14T01:20:38.471Z,11.85
2023-05-14T01:23:05.274Z,11.89
2023-05-14T01:25:32.484Z,11.78
2023-05-14T01:28:24.793Z,11.79
2023-05-14T01:30:58.365Z,11.90
2023-05-14T01:33:26.654Z,11.91
2023-05-14T01:35:54.504Z,11.82
2023-05-14T01:38:22.073Z,11.70
2023-05-14T01:40:49.399Z,11.75
2023-05-14T01:43:16.551Z,11.77
2023-05-14T01:45:43.938Z,11.83
2023-05-14T01:48:11.083Z,11.82
2023-05-14T01:50:38.102Z,11.76
2023-05-14T01:53:04.877Z,11.75
2023-05-14T01:55:31.603Z,11.53
2023-05-14T01:57:58.318Z,11.54
2023-05-14T02:00:26.338Z,11.58
2023-05-14T02:02:53.385Z,11.60
2023-05-14T02:05:20.394Z,11.58
2023-05-14T02:07:47.210Z,11.33
2023-05-14T02:10:13.906Z,11.40
2023-05-14T02:12:40.743Z,11.31
2023-05-14T02:15:09.283Z,11.23
2023-05-14T02:17:36.056Z,11.14
2023-05-14T02:20:02.990Z,11.20
2023-05-14T02:22:29.691Z,11.28
2023-05-14T02:24:56.409Z,11.29
2023-05-14T02:27:23.140Z,11.51
2023-05-14T02:29:50.224Z,11.46
2023-05-14T02:32:16.991Z,11.20
2023-05-14T02:34:43.835Z,11.26
2023-05-14T02:37:10.541Z,11.38
2023-05-14T02:39:37.301Z,11.41
2023-05-14T02:42:04.151Z,11.41
2023-05-14T02:44:32.041Z,11.36
2023-05-14T02:46:58.925Z,11.28
2023-05-14T02:49:25.743Z,11.23
2023-05-14T02:51:54.570Z,11.27
2023-05-14T02:54:21.278Z,11.27
2023-05-14T02:56:48.154Z,11.19
2023-05-14T02:59:14.897Z,11.15
2023-05-14T03:01:42.333Z,11.10
2023-05-14T03:04:09.482Z,11.12
2023-05-14T03:06:36.227Z,11.27
2023-05-14T03:09:03.063Z,11.27
2023-05-14T03:11:29.882Z,11.16
2023-05-14T03:13:56.677Z,11.20
2023-05-14T03:16:23.434Z,11.30
2023-05-14T03:18:50.660Z,11.24
2023-05-14T03:21:17.534Z,11.33
2023-05-14T03:23:44.584Z,11.16
2023-05-14T03:26:11.415Z,11.29
2023-05-14T03:28:38.139Z,11.33
2023-05-14T03:31:05.180Z,11.40
2023-05-14T03:33:32.171Z,11.41
2023-05-14T03:35:58.853Z,11.44
2023-05-14T03:38:25.685Z,11.46
2023-05-14T03:40:52.561Z,11.52
2023-05-14T03:43:19.351Z,11.54
2023-05-14T03:45:46.113Z,11.32
2023-05-14T03:48:13.302Z,11.40
2023-05-14T03:50:40.662Z,11.37
2023-05-14T03:53:07.589Z,11.48
2023-05-14T03:55:34.374Z,11.46
2023-05-14T03:58:02.344Z,11.48
2023-05-14T04:00:29.757Z,11.48
2023-05-14T04:02:56.620Z,11.48
2023-05-14T04:05:24.051Z,11.60
2023-05-14T04:07:52.933Z,11.56
2023-05-14T04:10:19.851Z,11.56
2023-05-14T04:12:46.584Z,11.60
2023-05-14T04:15:13.457Z,11.64
2023-05-14T04:17:40.507Z,11.61
2023-05-14T04:20:08.347Z,11.63
2023-05-14T04:22:35.308Z,11.71
2023-05-14T04:25:02.319Z,11.82
2023-05-14T04:27:29.101Z,11.88
2023-05-14T04:29:56.130Z,11.95
2023-05-14T04:32:23.587Z,11.97
2023-05-14T04:34:51.447Z,12.06
2023-05-14T04:37:18.359Z,12.06
2023-05-14T04:39:45.930Z,12.16
2023-05-14T04:42:12.872Z,12.22
2023-05-14T04:44:39.705Z,12.18
2023-05-14T04:47:07.349Z,12.24
2023-05-14T04:49:34.208Z,12.40
2023-05-14T04:52:01.953Z,12.47
2023-05-14T04:54:28.803Z,12.46
2023-05-14T04:56:56.275Z,12.53
2023-05-14T04:59:23.136Z,12.49
2023-05-14T05:01:51.954Z,12.59
2023-05-14T05:04:19.431Z,12.59
2023-05-14T05:06:49.434Z,12.62
2023-05-14T05:09:18.547Z,12.66
2023-05-14T05:11:45.444Z,12.93
2023-05-14T05:14:12.169Z,12.85
2023-05-14T05:16:39.005Z,12.73
2023-05-14T05:19:06.101Z,12.72
2023-05-14T05:21:33.723Z,12.73
2023-05-14T05:24:00.638Z,12.89
2023-05-14T05:26:27.726Z,13.05
2023-05-14T05:28:54.601Z,13.02
2023-05-14T05:31:21.602Z,12.76
2023-05-14T05:33:48.564Z,12.70
2023-05-14T05:36:15.318Z,12.83
2023-05-14T05:38:42.885Z,12.83
2023-05-14T05:41:09.625Z,12.89
2023-05-14T05:43:36.947Z,13.02
2023-05-14T05:46:03.774Z,13.07
2023-05-14T05:48:30.864Z,13.15
2023-05-14T05:50:58.167Z,13.24
2023-05-14T05:53:25.230Z,13.19
2023-05-14T05:55:52.169Z,13.29
2023-05-14T05:58:19.557Z,13.21
2023-05-14T06:00:47.701Z,13.22
2023-05-14T06:03:14.571Z,13.24
2023-05-14T06:05:41.932Z,13.34
2023-05-14T06:08:09.320Z,13.30
2023-05-14T06:10:36.680Z,13.43
2023-05-14T06:13:04.288Z,13.24
2023-05-14T06:15:31.007Z,13.36
2023-05-14T06:17:57.992Z,13.33
2023-05-14T06:20:25.072Z,13.31
2023-05-14T06:22:52.519Z,13.36
2023-05-14T06:25:19.513Z,13.40
2023-05-14T06:27:46.834Z,13.34
2023-05-14T06:30:14.295Z,13.39
2023-05-14T06:32:41.147Z,13.28
2023-05-14T06:35:09.189Z,13.48
2023-05-14T06:37:36.093Z,13.45
2023-05-14T06:40:04.223Z,13.54
2023-05-14T06:42:31.052Z,13.49
2023-05-14T06:44:57.888Z,13.63
2023-05-14T06:47:25.206Z,13.76
2023-05-14T06:49:52.521Z,13.88
2023-05-14T06:52:19.305Z,14.17
2023-05-14T06:54:46.310Z,14.31
2023-05-14T06:57:13.816Z,14.60
2023-05-14T06:59:40.529Z,14.90
2023-05-14T07:02:07.530Z,14.98
2023-05-14T07:04:34.674Z,14.94
2023-05-14T07:07:01.863Z,14.94
2023-05-14T07:09:29.221Z,15.02
2023-05-14T07:11:56.090Z,15.18
2023-05-14T07:14:22.874Z,15.30
2023-05-14T07:16:49.670Z,15.61
2023-05-14T07:19:16.613Z,15.63
2023-05-14T07:21:43.931Z,15.89
2023-05-14T07:24:10.769Z,15.97
2023-05-14T07:26:37.856Z,15.86
2023-05-14T07:29:04.628Z,16.11
2023-05-14T07:31:32.260Z,16.30
2023-05-14T07:33:59.715Z,16.57
2023-05-14T07:36:26.536Z,16.67
2023-05-14T07:38:53.259Z,16.77
2023-05-14T07:41:20.137Z,16.73
2023-05-14T07:43:46.890Z,16.68
2023-05-14T07:46:14.290Z,16.70
2023-05-14T07:48:41.336Z,16.90
2023-05-14T07:51:08.117Z,17.05
2023-05-14T07:53:34.946Z,17.15
2023-05-14T07:56:01.794Z,17.21
2023-05-14T07:58:29.208Z,17.38
2023-05-14T08:00:56.874Z,17.17
2023-05-14T08:03:23.872Z,17.33
2023-05-14T08:05:52.456Z,17.40
2023-05-14T08:08:19.328Z,17.51
2023-05-14T08:10:46.073Z,17.37
2023-05-14T08:13:12.767Z,17.15
2023-05-14T08:15:39.621Z,17.38
2023-05-14T08:18:06.619Z,17.48
2023-05-14T08:20:33.592Z,17.65
2023-05-14T08:23:00.377Z,17.93
2023-05-14T08:25:27.226Z,18.00
2023-05-14T08:27:54.541Z,18.04
2023-05-14T08:30:22.373Z,18.11
2023-05-14T08:32:49.830Z,18.16
2023-05-14T08:35:17.701Z,17.88
2023-05-14T08:37:46.521Z,18.13
2023-05-14T08:40:13.983Z,18.24
2023-05-14T08:42:45.263Z,18.29
2023-05-14T08:45:22.298Z,18.50
2023-05-14T08:47:50.976Z,18.27
2023-05-14T08:50:19.906Z,18.12
2023-05-14T08:52:49.334Z,18.37
2023-05-14T08:55:16.693Z,18.23
2023-05-14T08:57:46.925Z,18.36
2023-05-14T09:00:15.894Z,18.31
2023-05-14T09:02:44.958Z,18.36
2023-05-14T09:05:12.756Z,18.05
2023-05-14T09:07:39.903Z,18.19
2023-05-14T09:10:09.390Z,18.21
2023-05-14T09:12:36.674Z,18.18
2023-05-14T09:15:05.167Z,18.07
2023-05-14T09:17:32.378Z,18.15
2023-05-14T09:19:59.815Z,18.13
2023-05-14T09:22:32.927Z,18.11
2023-05-14T09:25:07.330Z,18.36
2023-05-14T09:27:34.503Z,18.56
2023-05-14T09:30:14.400Z,18.66
2023-05-14T09:32:50.636Z,18.78
2023-05-14T09:35:18.922Z,18.90
2023-05-14T09:37:49.545Z,18.89
2023-05-14T09:40:17.555Z,19.01
2023-05-14T09:42:44.495Z,19.15
2023-05-14T09:45:11.864Z,19.19
2023-05-14T09:47:39.543Z,18.96
2023-05-14T09:50:08.347Z,19.06
2023-05-14T09:52:35.948Z,19.22
2023-05-14T09:55:03.041Z,19.47
2023-05-14T09:57:29.988Z,19.66
2023-05-14T09:59:56.864Z,19.46
2023-05-14T10:02:34.203Z,19.40
2023-05-14T10:05:02.977Z,19.64
2023-05-14T10:07:34.130Z,19.70
2023-05-14T10:10:03.821Z,19.96
2023-05-14T10:12:34.907Z,19.63
2023-05-14T10:15:13.964Z,19.77
2023-05-14T10:17:41.839Z,19.97
2023-05-14T10:20:10.407Z,20.27
2023-05-14T10:22:37.410Z,20.52
2023-05-14T10:25:04.955Z,20.24
2023-05-14T10:27:32.022Z,20.41
2023-05-14T10:29:58.838Z,20.60
2023-05-14T10:32:26.723Z,20.49
2023-05-14T10:34:54.008Z,20.73
2023-05-14T10:37:25.770Z,20.43
2023-05-14T10:40:13.370Z,20.12
2023-05-14T10:42:41.215Z,20.24
2023-05-14T10:45:09.300Z,20.25
2023-05-14T10:47:37.586Z,20.40
2023-05-14T10:50:06.900Z,20.50
2023-05-14T10:52:35.639Z,20.26
2023-05-14T10:55:10.583Z,20.79
2023-05-14T10:57:39.259Z,20.55
2023-05-14T11:00:09.962Z,20.75
2023-05-14T11:02:38.442Z,20.61
2023-05-14T11:05:14.453Z,20.44
2023-05-14T11:07:46.209Z,20.08
2023-05-14T11:10:14.853Z,20.28
2023-05-14T11:12:47.464Z,20.59
2023-05-14T11:15:22.014Z,20.85
2023-05-14T11:17:50.644Z,20.45
2023-05-14T11:20:18.460Z,20.33
2023-05-14T11:22:46.332Z,20.21
2023-05-14T11:25:16.494Z,20.56
2023-05-14T11:27:44.696Z,20.86
2023-05-14T11:30:21.099Z,21.10
2023-05-14T11:32:49.765Z,21.14
2023-05-14T11:35:17.565Z,21.10
2023-05-14T11:37:50.983Z,20.89
2023-05-14T11:40:18.203Z,20.99
2023-05-14T11:42:45.632Z,21.26
2023-05-14T11:45:13.407Z,21.21
2023-05-14T11:47:41.644Z,20.95
2023-05-14T11:50:21.237Z,20.69
2023-05-14T11:52:50.910Z,21.19
2023-05-14T11:55:18.141Z,21.41
2023-05-14T11:57:45.348Z,21.27
2023-05-14T12:00:22.039Z,21.25
2023-05-14T12:02:51.017Z,21.22
2023-05-14T12:05:24.430Z,21.04
2023-05-14T12:07:59.758Z,20.71
2023-05-14T12:10:26.639Z,20.70
2023-05-14T12:12:53.783Z,20.97
2023-05-14T12:15:22.122Z,21.24
2023-05-14T12:17:52.553Z,21.01
2023-05-14T12:20:19.415Z,20.93
2023-05-14T12:22:46.304Z,21.13
2023-05-14T12:25:14.296Z,21.11
2023-05-14T12:27:41.727Z,21.18
2023-05-14T12:32:42.191Z,21.38
2023-05-14T12:35:09.741Z,21.57
2023-05-14T12:37:37.768Z,21.72
2023-05-14T12:40:09.655Z,21.21
2023-05-14T12:42:37.230Z,21.51
2023-05-14T12:45:07.593Z,21.85
2023-05-14T12:47:34.821Z,21.90
2023-05-14T12:50:01.882Z,21.67
2023-05-14T12:52:37.625Z,21.43
2023-05-14T12:55:06.827Z,21.65
2023-05-14T12:57:35.909Z,21.50
2023-05-14T13:00:07.121Z,21.23
2023-05-14T13:02:41.992Z,20.94
2023-05-14T13:05:10.400Z,20.87
2023-05-14T13:07:37.366Z,20.63
2023-05-14T13:10:06.093Z,20.64
2023-05-14T13:12:33.200Z,20.53
2023-05-14T13:15:00.078Z,20.36
2023-05-14T13:17:27.026Z,20.25
2023-05-14T13:19:53.865Z,20.16
2023-05-14T13:22:24.066Z,19.82
2023-05-14T13:24:50.997Z,20.03
2023-05-14T13:27:17.845Z,20.02
2023-05-14T13:29:44.593Z,20.13
2023-05-14T13:32:11.452Z,20.30
2023-05-14T13:34:38.244Z,20.68
2023-05-14T13:37:05.062Z,20.78
2023-05-14T13:39:31.795Z,20.63
2023-05-14T13:41:58.740Z,20.83
2023-05-14T13:44:25.588Z,20.82
2023-05-14T13:46:52.738Z,21.01
2023-05-14T13:49:19.825Z,21.13
2023-05-14T13:51:46.524Z,21.23
2023-05-14T13:54:13.553Z,21.09
2023-05-14T13:56:40.531Z,21.14
2023-05-14T13:59:07.408Z,21.32
2023-05-14T14:01:34.139Z,21.15
2023-05-14T14:04:01.143Z,21.57
2023-05-14T14:06:27.879Z,21.85
2023-05-14T14:08:54.966Z,21.80
2023-05-14T14:11:22.499Z,21.54
2023-05-14T14:13:49.345Z,21.36
2023-05-14T14:16:16.517Z,21.49
2023-05-14T14:18:43.602Z,21.38
2023-05-14T14:21:10.760Z,21.31
2023-05-14T14:23:37.656Z,20.86
2023-05-14T14:26:04.648Z,20.88
2023-05-14T14:28:31.663Z,21.20
2023-05-14T14:31:00.842Z,21.53
2023-05-14T14:33:28.017Z,21.90
2023-05-14T14:35:54.952Z,22.14
2023-05-14T14:38:21.888Z,21.97
2023-05-14T14:40:49.276Z,21.28
2023-05-14T14:43:16.785Z,21.31
2023-05-14T14:45:48.232Z,21.10
2023-05-14T14:48:34.736Z,20.75
2023-05-14T14:51:01.815Z,20.93
2023-05-14T14:53:28.957Z,20.81
2023-05-14T14:55:56.073Z,20.99
2023-05-14T14:58:23.302Z,20.78
2023-05-14T15:00:55.356Z,20.94
2023-05-14T15:03:23.123Z,21.00
2023-05-14T15:05:50.188Z,21.04
2023-05-14T15:08:17.196Z,21.01
2023-05-14T15:10:45.268Z,21.10
2023-05-14T15:13:15.858Z,20.85
2023-05-14T15:15:42.603Z,20.99
2023-05-14T15:18:09.831Z,20.85
2023-05-14T15:20:36.560Z,20.66
2023-05-14T15:23:03.547Z,20.60
2023-05-14T15:25:30.375Z,20.71
2023-05-14T15:27:57.943Z,20.58
2023-05-14T15:30:24.722Z,20.53
2023-05-14T15:32:51.933Z,20.48
2023-05-14T15:35:19.009Z,20.50
2023-05-14T15:37:45.918Z,20.61
2023-05-14T15:40:13.406Z,20.53
2023-05-14T15:42:44.527Z,20.17
2023-05-14T15:45:12.977Z,20.14
2023-05-14T15:47:40.957Z,20.24
2023-05-14T15:50:08.954Z,20.21
2023-05-14T15:52:40.463Z,20.32
2023-05-14T15:55:11.813Z,20.42
2023-05-14T15:57:38.812Z,20.42
2023-05-14T16:00:10.712Z,20.40
2023-05-14T16:02:40.537Z,20.27
2023-05-14T16:05:08.760Z,20.21
2023-05-14T16:07:36.638Z,20.31
2023-05-14T16:10:07.023Z,20.39
2023-05-14T16:12:34.327Z,20.26
2023-05-14T16:15:01.562Z,20.04
2023-05-14T16:17:28.965Z,20.15
2023-05-14T16:19:56.615Z,20.30
2023-05-14T16:22:23.722Z,20.38
2023-05-14T16:24:50.582Z,20.29
2023-05-14T16:27:19.319Z,20.34
2023-05-14T16:29:46.260Z,20.20
2023-05-14T16:32:13.235Z,19.98
2023-05-14T16:34:40.332Z,19.80
2023-05-14T16:37:07.394Z,19.59
2023-05-14T16:39:34.630Z,19.59
2023-05-14T16:42:01.389Z,19.49
2023-05-14T16:44:28.197Z,19.59
2023-05-14T16:46:55.072Z,19.45
2023-05-14T16:49:23.284Z,19.26
2023-05-14T16:51:50.505Z,19.33
2023-05-14T16:54:17.361Z,19.26
2023-05-14T16:56:48.808Z,19.47
2023-05-14T16:59:16.658Z,19.25
2023-05-14T17:01:45.244Z,19.26
2023-05-14T17:04:12.182Z,19.16
2023-05-14T17:06:38.919Z,19.09
2023-05-14T17:09:05.918Z,18.93
2023-05-14T17:11:32.731Z,19.08
2023-05-14T17:13:59.379Z,19.10
2023-05-14T17:16:27.329Z,19.05
2023-05-14T17:18:54.355Z,19.05
2023-05-14T17:21:21.089Z,18.92
2023-05-14T17:23:47.896Z,18.86
2023-05-14T17:26:14.658Z,18.84
2023-05-14T17:28:41.367Z,19.11
2023-05-14T17:31:08.186Z,19.16
2023-05-14T17:33:34.899Z,18.80
2023-05-14T17:36:01.762Z,18.84
2023-05-14T17:38:28.520Z,18.95
2023-05-14T17:40:55.608Z,19.13
2023-05-14T17:43:22.324Z,18.91
2023-05-14T17:48:19.712Z,18.68
2023-05-14T17:50:46.415Z,18.74
2023-05-14T17:53:13.218Z,18.57
2023-05-14T17:55:43.891Z,18.60
2023-05-14T17:58:15.661Z,18.64
2023-05-14T18:00:43.912Z,18.62
2023-05-14T18:03:10.945Z,18.63
2023-05-14T18:05:37.713Z,18.64
2023-05-14T18:08:04.614Z,18.66
2023-05-14T18:10:31.411Z,18.53
2023-05-14T18:12:58.478Z,18.31
2023-05-14T18:15:26.094Z,18.37
2023-05-14T18:17:53.194Z,18.26
2023-05-14T18:20:20.740Z,17.96
2023-05-14T18:22:47.467Z,17.96
2023-05-14T18:25:14.375Z,17.94
2023-05-14T18:27:44.950Z,17.96
2023-05-14T18:30:13.589Z,17.98
2023-05-14T18:32:41.700Z,17.90
2023-05-14T18:35:08.942Z,17.72
2023-05-14T18:37:35.802Z,17.55
2023-05-14T18:40:04.502Z,17.36
2023-05-14T18:42:31.314Z,17.44
2023-05-14T18:44:58.088Z,17.40
2023-05-14T18:47:24.994Z,17.32
2023-05-14T18:49:55.469Z,17.40
2023-05-14T18:52:23.138Z,17.61
2023-05-14T18:54:51.381Z,17.65
2023-05-14T18:57:18.214Z,17.32
2023-05-14T18:59:44.943Z,17.43
2023-05-14T19:02:11.655Z,17.17
2023-05-14T19:04:50.632Z,16.99
2023-05-14T19:07:19.057Z,17.00
2023-05-14T19:09:46.094Z,16.91
2023-05-14T19:12:13.277Z,16.94
2023-05-14T19:14:40.308Z,17.07
2023-05-14T19:17:07.049Z,17.19
2023-05-14T19:19:33.999Z,17.26
2023-05-14T19:22:00.752Z,17.22
2023-05-14T19:24:27.530Z,17.22
2023-05-14T19:26:54.345Z,17.22
2023-05-14T19:29:21.060Z,17.16
2023-05-14T19:31:47.846Z,17.19
2023-05-14T19:34:14.673Z,16.91
2023-05-14T19:36:41.995Z,16.72
2023-05-14T19:39:08.740Z,16.61
2023-05-14T19:41:35.535Z,16.61
2023-05-14T19:44:02.278Z,16.50
2023-05-14T19:46:29.188Z,16.49
2023-05-14T19:48:55.871Z,16.43
2023-05-14T19:51:22.647Z,16.36
2023-05-14T19:53:49.385Z,16.19
2023-05-14T19:56:16.326Z,15.80
2023-05-14T19:58:43.912Z,16.02
2023-05-14T20:01:12.283Z,15.88
2023-05-14T20:03:39.290Z,15.83
2023-05-14T20:06:07.438Z,15.71
2023-05-14T20:08:34.180Z,15.62
2023-05-14T20:11:01.121Z,15.64
2023-05-14T20:13:27.926Z,15.34
2023-05-14T20:15:55.371Z,15.07
2023-05-14T20:18:22.224Z,14.85
2023-05-14T20:20:49.406Z,14.93
2023-05-14T20:23:16.188Z,14.96
2023-05-14T20:25:43.335Z,14.93
2023-05-14T20:28:10.736Z,14.85
2023-05-14T20:30:37.681Z,14.80
2023-05-14T20:33:04.614Z,14.81
2023-05-14T20:35:31.452Z,14.74
2023-05-14T20:37:58.861Z,14.47
2023-05-14T20:40:25.715Z,13.68
2023-05-14T20:42:52.495Z,13.74
2023-05-14T20:45:19.306Z,13.95
2023-05-14T20:47:46.421Z,14.03
2023-05-14T20:50:13.978Z,14.10
2023-05-14T20:52:41.057Z,14.01
2023-05-14T20:55:08.818Z,13.90
2023-05-14T20:57:35.807Z,14.13
2023-05-14T21:00:07.265Z,14.18
2023-05-14T21:02:34.856Z,14.20
2023-05-14T21:05:01.856Z,14.22
2023-05-14T21:07:29.039Z,14.23
2023-05-14T21:09:55.915Z,14.07
2023-05-14T21:12:22.880Z,13.75
2023-05-14T21:14:49.572Z,13.93
2023-05-14T21:17:16.265Z,14.11
2023-05-14T21:19:43.014Z,14.12
2023-05-14T21:22:09.696Z,14.20
2023-05-14T21:24:36.432Z,14.24
2023-05-14T21:27:03.158Z,14.23
2023-05-14T21:29:29.950Z,14.23
2023-05-14T21:31:56.687Z,14.31
2023-05-14T21:34:23.401Z,14.36
2023-05-14T21:36:50.362Z,14.33
2023-05-14T21:39:17.067Z,14.40
2023-05-14T21:41:43.845Z,14.43
2023-05-14T21:44:10.591Z,14.48
2023-05-14T21:46:37.272Z,14.22
2023-05-14T21:49:04.032Z,14.30
2023-05-14T21:51:32.400Z,14.25
2023-05-14T21:53:59.195Z,14.17
2023-05-14T21:56:26.593Z,14.18
2023-05-14T21:58:55.755Z,14.05
2023-05-14T22:01:22.534Z,14.14
2023-05-14T22:03:49.420Z,13.99
2023-05-14T22:06:16.141Z,14.08
2023-05-14T22:08:42.922Z,14.01
2023-05-14T22:11:09.635Z,14.00
2023-05-14T22:13:41.108Z,13.93
2023-05-14T22:16:13.307Z,13.90
2023-05-14T22:18:40.904Z,13.95
2023-05-14T22:21:07.717Z,13.92
2023-05-14T22:23:34.600Z,13.77
2023-05-14T22:26:01.570Z,13.73
2023-05-14T22:28:28.317Z,13.68
2023-05-14T22:30:56.783Z,13.62
2023-05-14T22:33:23.551Z,13.41
2023-05-14T22:35:50.293Z,13.60
2023-05-14T22:38:17.017Z,13.68
2023-05-14T22:40:43.752Z,13.57
2023-05-14T22:43:10.937Z,13.52
2023-05-14T22:45:37.670Z,13.51
2023-05-14T22:48:04.629Z,13.34
2023-05-14T22:50:31.423Z,13.42
2023-05-14T22:52:58.369Z,13.36
2023-05-14T22:55:25.193Z,13.40
2023-05-14T22:57:52.104Z,13.28
2023-05-14T23:00:19.054Z,13.28
2023-05-14T23:02:45.962Z,13.16
2023-05-14T23:05:12.741Z,13.03
2023-05-14T23:07:39.557Z,13.05
2023-05-14T23:10:06.943Z,12.95
2023-05-14T23:12:33.794Z,12.66
2023-05-14T23:15:00.570Z,12.71
2023-05-14T23:17:27.392Z,12.96
2023-05-14T23:19:54.335Z,12.54
2023-05-14T23:22:21.169Z,12.41
2023-05-14T23:24:47.864Z,12.41
2023-05-14T23:27:14.580Z,12.44
2023-05-14T23:29:41.317Z,12.43
2023-05-14T23:32:08.659Z,12.54
2023-05-14T23:34:35.743Z,12.55
2023-05-14T23:37:02.614Z,12.46
2023-05-14T23:39:29.387Z,12.46
2023-05-14T23:41:56.104Z,12.35
2023-05-14T23:44:22.900Z,12.28
2023-05-14T23:46:49.742Z,12.23
2023-05-14T23:49:16.556Z,12.23
2023-05-14T23:51:43.370Z,12.22
2023-05-14T23:54:10.086Z,12.03
2023-05-14T23:56:36.858Z,12.03
2023-05-14T23:59:03.921Z,12.04
